createdAt,value
2019-01-23T00:02:19.626Z,61.17
2019-01-23T00:04:46.264Z,63.67
2019-01-23T00:07:12.900Z,62.23
2019-01-23T00:09:39.457Z,64.60
2019-01-23T00:12:06.291Z,59.37
2019-01-23T00:14:33.037Z,56.63
2019-01-23T00:16:59.776Z,61.63
2019-01-23T00:19:26.520Z,56.30
2019-01-23T00:21:53.252Z,62.27
2019-01-23T00:24:20.001Z,62.73
2019-01-23T00:26:46.434Z,62.43
2019-01-23T00:29:13.076Z,60.00
2019-01-23T00:31:39.607Z,60.43
2019-01-23T00:34:06.263Z,58.70
2019-01-23T00:36:32.790Z,59.30
2019-01-23T00:38:59.432Z,60.83
2019-01-23T00:41:26.080Z,55.83
2019-01-23T00:43:52.905Z,61.20
2019-01-23T00:46:19.676Z,62.23
2019-01-23T00:48:46.328Z,56.10
2019-01-23T00:51:12.941Z,61.33
2019-01-23T00:53:40.393Z,56.20
2019-01-23T00:56:06.905Z,60.57
2019-01-23T00:58:33.962Z,57.93
2019-01-23T01:01:01.763Z,61.17
2019-01-23T01:03:28.625Z,59.30
2019-01-23T01:05:55.151Z,67.10
2019-01-23T01:08:21.716Z,61.53
2019-01-23T01:10:48.142Z,60.77
2019-01-23T01:13:14.693Z,59.80
2019-01-23T01:15:41.255Z,57.13
2019-01-23T01:18:07.880Z,60.83
2019-01-23T01:20:34.430Z,61.60
2019-01-23T01:23:00.952Z,57.70
2019-01-23T01:25:27.404Z,60.67
2019-01-23T01:27:53.919Z,67.87
2019-01-23T01:30:22.404Z,63.43
2019-01-23T01:32:48.834Z,69.10
2019-01-23T01:35:15.485Z,59.40
2019-01-23T01:37:42.004Z,61.40
2019-01-23T01:40:12.563Z,62.80
2019-01-23T01:42:39.265Z,56.13
2019-01-23T01:45:07.634Z,60.90
2019-01-23T01:47:34.841Z,57.43
2019-01-23T01:50:06.107Z,62.60
2019-01-23T01:52:32.636Z,61.53
2019-01-23T01:54:59.194Z,57.37
2019-01-23T01:57:25.709Z,58.37
2019-01-23T01:59:52.262Z,58.87
2019-01-23T02:02:18.775Z,58.43
2019-01-23T02:04:45.425Z,56.80
2019-01-23T02:07:12.000Z,60.83
2019-01-23T02:09:38.457Z,60.90
2019-01-23T02:12:04.981Z,57.47
2019-01-23T02:14:31.421Z,59.30
2019-01-23T02:16:57.944Z,58.47
2019-01-23T02:19:24.477Z,61.90
2019-01-23T02:21:50.995Z,60.90
2019-01-23T02:24:17.539Z,66.40
2019-01-23T02:26:44.161Z,59.43
2019-01-23T02:29:10.914Z,59.93
2019-01-23T02:31:37.528Z,64.00
2019-01-23T02:34:04.148Z,59.27
2019-01-23T02:36:30.702Z,58.53
2019-01-23T02:38:57.211Z,61.97
2019-01-23T02:41:23.761Z,61.30
2019-01-23T02:43:50.297Z,61.37
2019-01-23T02:46:16.830Z,60.17
2019-01-23T02:48:43.354Z,61.47
2019-01-23T02:51:09.915Z,64.47
2019-01-23T02:53:36.421Z,57.63
2019-01-23T02:56:03.468Z,62.43
2019-01-23T02:58:30.148Z,60.07
2019-01-23T03:00:56.697Z,61.37
2019-01-23T03:03:24.222Z,54.40
2019-01-23T03:05:50.863Z,59.90
2019-01-23T03:08:18.288Z,56.23
2019-01-23T03:10:44.848Z,55.43
2019-01-23T03:13:11.569Z,57.93
2019-01-23T03:15:38.208Z,62.47
2019-01-23T03:18:04.744Z,59.67
2019-01-23T03:20:31.292Z,53.27
2019-01-23T03:22:57.845Z,57.57
2019-01-23T03:25:24.402Z,54.77
2019-01-23T03:27:50.921Z,56.37
2019-01-23T03:30:19.489Z,52.17
2019-01-23T03:32:46.306Z,54.50
2019-01-23T03:35:13.045Z,56.00
2019-01-23T03:37:39.764Z,55.00
2019-01-23T03:40:14.602Z,55.57
2019-01-23T03:42:41.109Z,58.23
2019-01-23T03:45:09.766Z,54.83
2019-01-23T03:47:36.381Z,55.17
2019-01-23T03:50:10.049Z,60.33
2019-01-23T03:52:37.699Z,51.93
2019-01-23T03:55:07.720Z,55.93
2019-01-23T03:57:35.482Z,54.70
2019-01-23T04:00:05.506Z,51.00
2019-01-23T04:02:32.051Z,53.30
2019-01-23T04:04:58.567Z,53.00
2019-01-23T04:07:25.319Z,55.53
2019-01-23T04:09:52.738Z,59.40
2019-01-23T04:12:19.386Z,56.00
2019-01-23T04:14:46.013Z,56.20
2019-01-23T04:17:12.592Z,53.37
2019-01-23T04:19:39.105Z,54.40
2019-01-23T04:22:05.722Z,55.87
2019-01-23T04:24:32.426Z,59.60
2019-01-23T04:26:59.676Z,60.23
2019-01-23T04:29:26.427Z,55.70
2019-01-23T04:31:53.067Z,54.73
2019-01-23T04:34:19.635Z,57.77
2019-01-23T04:36:46.267Z,59.27
2019-01-23T04:39:12.911Z,56.63
2019-01-23T04:41:39.537Z,57.13
2019-01-23T04:44:07.691Z,57.13
2019-01-23T04:46:34.426Z,59.73
2019-01-23T04:49:01.982Z,60.37
2019-01-23T04:51:34.053Z,56.60
2019-01-23T04:54:01.818Z,62.40
2019-01-23T04:56:28.350Z,56.57
2019-01-23T04:58:55.001Z,60.30
2019-01-23T05:01:21.834Z,59.07
2019-01-23T05:03:48.485Z,58.87
2019-01-23T05:06:15.837Z,63.90
2019-01-23T05:08:42.425Z,61.77
2019-01-23T05:11:08.956Z,67.30
2019-01-23T05:13:35.535Z,57.73
2019-01-23T05:16:02.053Z,62.67
2019-01-23T05:18:28.601Z,64.63
2019-01-23T05:20:55.209Z,60.53
2019-01-23T05:23:21.872Z,66.10
2019-01-23T05:25:48.393Z,63.93
2019-01-23T05:28:16.854Z,64.30
2019-01-23T05:30:45.086Z,66.37
2019-01-23T05:33:11.630Z,65.73
2019-01-23T05:35:39.849Z,68.67
2019-01-23T05:38:06.505Z,74.40
2019-01-23T05:40:33.029Z,68.27
2019-01-23T05:42:59.579Z,68.73
2019-01-23T05:45:26.237Z,70.73
2019-01-23T05:47:53.448Z,62.70
2019-01-23T05:50:20.221Z,67.00
2019-01-23T05:52:48.035Z,68.23
2019-01-23T05:55:14.889Z,76.43
2019-01-23T05:57:43.313Z,71.33
2019-01-23T06:00:12.982Z,65.33
2019-01-23T06:02:39.618Z,68.30
2019-01-23T06:05:07.996Z,74.37
2019-01-23T06:07:34.721Z,63.67
2019-01-23T06:10:02.075Z,76.97
2019-01-23T06:12:28.803Z,75.40
2019-01-23T06:14:55.350Z,73.37
2019-01-23T06:17:22.876Z,72.73
2019-01-23T06:19:49.549Z,69.70
2019-01-23T06:22:16.155Z,73.40
2019-01-23T06:24:42.705Z,77.40
2019-01-23T06:27:09.336Z,70.47
2019-01-23T06:29:35.983Z,67.77
2019-01-23T06:32:02.821Z,69.77
2019-01-23T06:34:29.375Z,70.40
2019-01-23T06:36:56.001Z,72.73
2019-01-23T06:39:22.548Z,75.23
2019-01-23T06:41:49.204Z,79.83
2019-01-23T06:44:15.834Z,72.63
2019-01-23T06:46:42.462Z,66.43
2019-01-23T06:49:09.121Z,75.03
2019-01-23T06:51:36.445Z,70.97
2019-01-23T06:54:03.253Z,79.17
2019-01-23T06:56:30.382Z,69.07
2019-01-23T06:58:57.022Z,73.83
2019-01-23T07:01:24.548Z,72.90
2019-01-23T07:03:52.104Z,67.00
2019-01-23T07:06:18.822Z,68.83
2019-01-23T07:08:45.574Z,71.47
2019-01-23T07:11:12.185Z,70.83
2019-01-23T07:13:38.843Z,70.80
2019-01-23T07:16:05.504Z,68.50
2019-01-23T07:18:32.136Z,70.30
2019-01-23T07:20:58.833Z,63.97
2019-01-23T07:23:25.361Z,71.80
2019-01-23T07:25:51.913Z,72.20
2019-01-23T07:28:18.436Z,71.67
2019-01-23T07:30:45.097Z,72.80
2019-01-23T07:33:11.623Z,74.00
2019-01-23T07:35:38.178Z,77.90
2019-01-23T07:38:04.846Z,73.33
2019-01-23T07:40:31.607Z,79.73
2019-01-23T07:42:58.130Z,72.17
2019-01-23T07:45:26.285Z,74.40
2019-01-23T07:47:52.914Z,64.80
2019-01-23T07:50:19.610Z,69.13
2019-01-23T07:52:46.332Z,65.50
2019-01-23T07:55:15.185Z,70.90
2019-01-23T07:57:43.593Z,71.20
2019-01-23T08:00:18.309Z,65.43
2019-01-23T08:02:45.634Z,71.97
2019-01-23T08:05:19.563Z,68.23
2019-01-23T08:07:44.825Z,65.60
2019-01-23T08:10:14.286Z,67.87
2019-01-23T08:12:50.366Z,61.07
2019-01-23T08:15:23.057Z,64.40
2019-01-23T08:17:49.574Z,69.83
2019-01-23T08:20:20.844Z,68.67
2019-01-23T08:22:47.490Z,68.80
2019-01-23T08:25:14.643Z,64.73
2019-01-23T08:27:41.169Z,67.40
2019-01-23T08:30:11.328Z,63.50
2019-01-23T08:32:37.946Z,68.10
2019-01-23T08:35:05.910Z,73.80
2019-01-23T08:37:32.523Z,73.40
2019-01-23T08:39:59.177Z,72.47
2019-01-23T08:42:25.890Z,78.07
2019-01-23T08:44:52.536Z,68.00
2019-01-23T08:47:19.166Z,71.90
2019-01-23T08:49:45.896Z,64.27
2019-01-23T08:52:12.530Z,70.23
2019-01-23T08:54:39.177Z,72.87
2019-01-23T08:57:05.710Z,68.83
2019-01-23T08:59:32.255Z,71.80
2019-01-23T09:01:58.772Z,71.23
2019-01-23T09:04:25.326Z,70.70
2019-01-23T09:06:51.840Z,64.97
2019-01-23T09:09:18.413Z,68.40
2019-01-23T09:11:45.243Z,67.77
2019-01-23T09:14:11.793Z,63.60
2019-01-23T09:16:38.322Z,67.63
2019-01-23T09:19:04.916Z,67.80
2019-01-23T09:21:31.634Z,67.07
2019-01-23T09:23:58.984Z,72.07
2019-01-23T09:26:25.604Z,71.00
2019-01-23T09:28:52.125Z,70.53
2019-01-23T09:31:24.443Z,63.57
2019-01-23T09:33:57.712Z,70.50
2019-01-23T09:36:29.421Z,65.30
2019-01-23T09:39:16.387Z,66.97
2019-01-23T09:41:49.922Z,68.73
2019-01-23T09:44:37.140Z,70.60
2019-01-23T09:47:07.684Z,73.63
2019-01-23T09:49:50.506Z,68.93
2019-01-23T09:52:32.794Z,67.50
2019-01-23T09:54:59.342Z,68.70
2019-01-23T09:57:26.064Z,66.63
2019-01-23T09:59:52.608Z,66.40
2019-01-23T10:02:19.133Z,65.90
2019-01-23T10:04:45.785Z,72.23
2019-01-23T10:07:12.319Z,71.50
2019-01-23T10:09:38.904Z,68.60
2019-01-23T10:12:05.530Z,64.23
2019-01-23T10:14:32.264Z,71.60
2019-01-23T10:16:59.621Z,69.30
2019-01-23T10:19:26.399Z,76.07
2019-01-23T10:21:53.149Z,69.67
2019-01-23T10:24:19.769Z,62.17
2019-01-23T10:26:46.527Z,67.30
2019-01-23T10:29:13.147Z,68.83
2019-01-23T10:31:39.905Z,69.67
2019-01-23T10:34:07.316Z,79.13
2019-01-23T10:36:33.976Z,71.87
2019-01-23T10:39:00.606Z,66.50
2019-01-23T10:41:27.151Z,68.67
2019-01-23T10:43:53.677Z,71.10
2019-01-23T10:46:20.342Z,68.00
2019-01-23T10:48:46.951Z,67.37
2019-01-23T10:51:13.817Z,65.70
2019-01-23T10:53:40.434Z,74.37
2019-01-23T10:56:06.981Z,64.97
2019-01-23T10:58:33.510Z,67.97
2019-01-23T11:01:00.157Z,64.70
2019-01-23T11:03:26.980Z,69.67
2019-01-23T11:05:53.541Z,68.43
2019-01-23T11:08:20.064Z,64.33
2019-01-23T11:10:46.625Z,66.67
2019-01-23T11:13:13.249Z,68.17
2019-01-23T11:15:39.824Z,64.87
2019-01-23T11:18:06.456Z,66.67
2019-01-23T11:20:32.908Z,71.73
2019-01-23T11:22:59.427Z,79.27
2019-01-23T11:25:26.077Z,73.73
2019-01-23T11:27:52.650Z,77.40
2019-01-23T11:30:24.296Z,70.43
2019-01-23T11:32:51.062Z,78.03
2019-01-23T11:35:17.686Z,77.60
2019-01-23T11:37:45.452Z,76.03
2019-01-23T11:40:17.960Z,74.13
2019-01-23T11:42:44.403Z,72.03
2019-01-23T11:45:11.829Z,73.70
2019-01-23T11:47:38.682Z,69.57
2019-01-23T11:50:09.018Z,77.07
2019-01-23T11:52:36.465Z,73.03
2019-01-23T11:55:04.593Z,72.93
2019-01-23T11:57:31.258Z,74.00
2019-01-23T11:59:57.978Z,71.97
2019-01-23T12:02:30.695Z,70.60
2019-01-23T12:04:53.868Z,71.07
2019-01-23T12:07:20.629Z,68.67
2019-01-23T12:09:47.334Z,73.10
2019-01-23T12:12:13.981Z,72.13
2019-01-23T12:14:40.495Z,64.83
2019-01-23T12:17:07.158Z,68.20
2019-01-23T12:19:33.694Z,72.37
2019-01-23T12:22:00.235Z,67.57
2019-01-23T12:24:26.669Z,72.40
2019-01-23T12:26:53.225Z,66.93
2019-01-23T12:29:19.783Z,69.17
2019-01-23T12:31:46.448Z,65.90
2019-01-23T12:34:12.972Z,62.50
2019-01-23T12:36:39.736Z,72.33
2019-01-23T12:39:08.134Z,65.07
2019-01-23T12:41:34.673Z,66.37
2019-01-23T12:44:01.207Z,64.63
2019-01-23T12:46:27.865Z,69.40
2019-01-23T12:48:54.488Z,64.77
2019-01-23T12:51:21.145Z,72.93
2019-01-23T12:53:47.761Z,62.37
2019-01-23T12:56:14.394Z,72.23
2019-01-23T12:58:41.050Z,71.20
2019-01-23T13:01:07.845Z,69.60
2019-01-23T13:03:34.605Z,71.83
2019-01-23T13:06:01.370Z,73.13
2019-01-23T13:08:27.960Z,72.27
2019-01-23T13:10:54.889Z,72.03
2019-01-23T13:13:23.892Z,73.37
2019-01-23T13:15:53.058Z,68.77
2019-01-23T13:18:19.752Z,67.07
2019-01-23T13:20:46.674Z,65.40
2019-01-23T13:23:19.459Z,63.27
2019-01-23T13:25:41.875Z,69.63
2019-01-23T13:28:09.656Z,70.47
2019-01-23T13:30:36.992Z,68.13
2019-01-23T13:33:04.573Z,61.87
2019-01-23T13:35:33.986Z,63.20
2019-01-23T13:38:01.965Z,68.67
2019-01-23T13:40:32.561Z,68.47
2019-01-23T13:43:00.210Z,72.47
2019-01-23T13:45:27.389Z,68.00
2019-01-23T13:47:54.626Z,67.63
2019-01-23T13:50:21.597Z,65.07
2019-01-23T13:52:48.670Z,66.83
2019-01-23T13:55:18.046Z,68.27
2019-01-23T13:57:44.883Z,68.57
2019-01-23T14:00:15.655Z,63.17
2019-01-23T14:02:43.168Z,63.57
2019-01-23T14:05:10.537Z,69.80
2019-01-23T14:07:38.406Z,64.00
2019-01-23T14:10:09.157Z,67.30
2019-01-23T14:12:35.778Z,69.13
2019-01-23T14:15:06.989Z,66.30
2019-01-23T14:17:34.524Z,67.90
2019-01-23T14:20:03.638Z,68.40
2019-01-23T14:22:31.493Z,64.70
2019-01-23T14:24:59.331Z,73.47
2019-01-23T14:27:27.028Z,64.50
2019-01-23T14:29:54.213Z,67.57
2019-01-23T14:32:22.077Z,72.27
2019-01-23T14:34:49.729Z,66.17
2019-01-23T14:37:17.469Z,74.60
2019-01-23T14:39:45.290Z,70.60
2019-01-23T14:42:12.152Z,75.77
2019-01-23T14:44:39.945Z,70.50
2019-01-23T14:47:07.950Z,67.40
2019-01-23T14:49:35.937Z,65.60
2019-01-23T14:52:03.846Z,75.50
2019-01-23T14:54:30.872Z,71.73
2019-01-23T14:56:58.196Z,70.00
2019-01-23T14:59:25.183Z,74.67
2019-01-23T15:01:52.901Z,71.97
2019-01-23T15:04:21.429Z,74.20
2019-01-23T15:06:49.558Z,72.90
2019-01-23T15:09:17.368Z,73.40
2019-01-23T15:11:45.337Z,76.40
2019-01-23T15:14:12.768Z,77.60
2019-01-23T15:16:40.666Z,80.77
2019-01-23T15:19:08.382Z,74.80
2019-01-23T15:21:36.306Z,84.73
2019-01-23T15:24:04.318Z,80.73
2019-01-23T15:26:32.172Z,77.53
2019-01-23T15:29:00.561Z,79.00
2019-01-23T15:31:28.787Z,76.10
2019-01-23T15:33:57.314Z,74.90
2019-01-23T15:36:25.540Z,80.27
2019-01-23T15:38:53.876Z,79.47
2019-01-23T15:41:22.352Z,78.97
2019-01-23T15:43:50.985Z,75.23
2019-01-23T15:46:19.385Z,80.90
2019-01-23T15:48:48.513Z,69.47
2019-01-23T15:51:17.006Z,73.47
2019-01-23T15:53:45.332Z,86.50
2019-01-23T15:56:14.572Z,77.37
2019-01-23T15:58:42.598Z,76.67
2019-01-23T16:01:10.931Z,78.77
2019-01-23T16:03:39.095Z,74.97
2019-01-23T16:06:07.414Z,82.13
2019-01-23T16:08:35.294Z,81.60
2019-01-23T16:11:03.455Z,90.23
2019-01-23T16:13:31.332Z,88.93
2019-01-23T16:15:59.736Z,90.90
2019-01-23T16:18:27.726Z,88.30
2019-01-23T16:20:55.740Z,87.07
2019-01-23T16:23:23.811Z,91.27
2019-01-23T16:25:52.921Z,99.10
2019-01-23T16:28:20.931Z,100.40
2019-01-23T16:30:49.159Z,88.70
2019-01-23T16:33:17.478Z,99.43
2019-01-23T16:35:47.233Z,97.57
2019-01-23T16:38:15.978Z,92.03
2019-01-23T16:40:44.112Z,93.57
2019-01-23T16:43:13.059Z,91.90
2019-01-23T16:45:41.877Z,94.73
2019-01-23T16:48:10.165Z,90.93
2019-01-23T16:50:38.587Z,92.73
2019-01-23T16:53:06.668Z,96.30
2019-01-23T16:55:34.890Z,97.53
2019-01-23T16:58:04.022Z,92.37
2019-01-23T17:00:32.564Z,90.13
2019-01-23T17:03:02.340Z,92.80
2019-01-23T17:05:31.520Z,93.37
2019-01-23T17:08:01.073Z,92.63
2019-01-23T17:10:29.206Z,97.50
2019-01-23T17:12:57.534Z,86.10
2019-01-23T17:15:26.070Z,87.00
2019-01-23T17:17:54.801Z,93.63
2019-01-23T17:20:25.652Z,81.73
2019-01-23T17:22:54.118Z,93.43
2019-01-23T17:25:22.441Z,91.60
2019-01-23T17:27:51.080Z,92.13
2019-01-23T17:30:19.613Z,78.97
2019-01-23T17:32:49.226Z,80.60
2019-01-23T17:35:18.663Z,87.83
2019-01-23T17:37:47.101Z,83.73
2019-01-23T17:40:18.323Z,83.47
2019-01-23T17:42:46.949Z,80.70
2019-01-23T17:45:18.002Z,79.23
2019-01-23T17:47:46.910Z,86.00
2019-01-23T17:50:17.456Z,92.90
2019-01-23T17:52:45.927Z,81.53
2019-01-23T17:55:28.860Z,82.60
2019-01-23T17:57:58.857Z,81.50
2019-01-23T18:00:30.415Z,78.47
2019-01-23T18:02:58.693Z,82.73
2019-01-23T18:05:27.646Z,79.00
2019-01-23T18:07:56.060Z,75.33
2019-01-23T18:10:24.697Z,84.10
2019-01-23T18:12:53.321Z,78.73
2019-01-23T18:15:27.045Z,82.47
2019-01-23T18:17:56.121Z,76.97
2019-01-23T18:20:26.680Z,78.57
2019-01-23T18:22:57.026Z,86.03
2019-01-23T18:25:26.213Z,85.37
2019-01-23T18:27:54.895Z,78.27
2019-01-23T18:30:37.806Z,83.83
2019-01-23T18:33:08.939Z,82.53
2019-01-23T18:36:04.415Z,84.87
2019-01-23T18:38:44.404Z,82.63
2019-01-23T18:41:27.830Z,86.07
2019-01-23T18:44:04.832Z,89.23
2019-01-23T18:46:47.799Z,80.00
2019-01-23T18:49:39.878Z,90.07
2019-01-23T18:52:13.879Z,84.60
2019-01-23T18:54:43.236Z,82.83
2019-01-23T18:57:20.057Z,94.03
2019-01-23T18:59:48.688Z,85.10
2019-01-23T19:02:19.515Z,90.17
2019-01-23T19:04:49.640Z,86.07
2019-01-23T19:07:19.460Z,81.30
2019-01-23T19:09:49.011Z,88.47
2019-01-23T19:12:18.055Z,78.20
2019-01-23T19:14:47.097Z,75.97
2019-01-23T19:17:15.986Z,79.17
2019-01-23T19:19:44.921Z,87.40
2019-01-23T19:22:13.865Z,80.70
2019-01-23T19:24:42.813Z,79.40
2019-01-23T19:27:11.963Z,82.93
2019-01-23T19:29:41.097Z,81.17
2019-01-23T19:32:10.252Z,88.03
2019-01-23T19:34:39.347Z,76.20
2019-01-23T19:37:08.129Z,78.93
2019-01-23T19:39:37.016Z,81.70
2019-01-23T19:42:06.169Z,85.20
2019-01-23T19:44:35.117Z,74.57
2019-01-23T19:47:04.544Z,83.40
2019-01-23T19:49:35.324Z,77.60
2019-01-23T19:52:04.453Z,85.00
2019-01-23T19:54:33.477Z,90.00
2019-01-23T19:57:02.258Z,83.13
2019-01-23T19:59:32.865Z,84.67
2019-01-23T20:02:02.029Z,81.57
2019-01-23T20:04:31.720Z,79.30
2019-01-23T20:07:00.896Z,84.73
2019-01-23T20:09:29.939Z,81.93
2019-01-23T20:12:00.365Z,72.83
2019-01-23T20:14:29.837Z,74.30
2019-01-23T20:16:58.907Z,73.20
2019-01-23T20:19:28.365Z,77.63
2019-01-23T20:21:57.313Z,68.93
2019-01-23T20:24:26.278Z,73.27
2019-01-23T20:26:55.410Z,73.93
2019-01-23T20:29:24.048Z,74.77
2019-01-23T20:31:52.979Z,70.03
2019-01-23T20:34:22.361Z,68.13
2019-01-23T20:36:51.420Z,73.83
2019-01-23T20:39:20.473Z,66.67
2019-01-23T20:41:49.676Z,68.90
2019-01-23T20:44:19.548Z,66.73
2019-01-23T20:46:49.034Z,69.50
2019-01-23T20:49:19.110Z,62.90
2019-01-23T20:51:48.921Z,70.10
2019-01-23T20:54:19.231Z,74.40
2019-01-23T20:56:48.502Z,62.57
2019-01-23T20:59:17.952Z,70.00
2019-01-23T21:01:47.930Z,68.10
2019-01-23T21:04:17.690Z,66.40
2019-01-23T21:06:46.949Z,69.50
2019-01-23T21:09:16.152Z,61.23
2019-01-23T21:11:45.141Z,62.30
2019-01-23T21:14:14.256Z,65.83
2019-01-23T21:16:43.401Z,66.97
2019-01-23T21:19:12.244Z,60.67
2019-01-23T21:21:41.394Z,68.17
2019-01-23T21:24:10.493Z,64.00
2019-01-23T21:26:39.335Z,63.10
2019-01-23T21:29:09.923Z,68.23
2019-01-23T21:31:38.463Z,65.07
2019-01-23T21:34:08.060Z,65.83
2019-01-23T21:36:36.912Z,65.30
2019-01-23T21:39:08.718Z,65.57
2019-01-23T21:41:37.344Z,58.97
2019-01-23T21:44:06.138Z,66.00
2019-01-23T21:46:35.087Z,61.43
2019-01-23T21:49:04.372Z,57.30
2019-01-23T21:51:33.091Z,63.80
2019-01-23T21:54:01.572Z,63.27
2019-01-23T21:56:30.196Z,65.77
2019-01-23T21:58:59.119Z,53.87
2019-01-23T22:01:27.751Z,57.27
2019-01-23T22:03:56.894Z,54.93
2019-01-23T22:06:25.152Z,57.50
2019-01-23T22:08:54.106Z,56.23
2019-01-23T22:11:22.947Z,53.50
2019-01-23T22:13:51.180Z,60.83
2019-01-23T22:16:18.949Z,59.13
2019-01-23T22:18:47.668Z,56.43
2019-01-23T22:21:16.059Z,52.70
2019-01-23T22:23:43.849Z,56.80
2019-01-23T22:26:12.465Z,54.10
2019-01-23T22:28:40.976Z,51.40
2019-01-23T22:31:08.711Z,47.67
2019-01-23T22:33:36.204Z,47.27
2019-01-23T22:36:03.219Z,48.97
2019-01-23T22:38:29.761Z,50.57
2019-01-23T22:40:56.380Z,46.07
2019-01-23T22:43:23.121Z,49.77
2019-01-23T22:45:49.813Z,42.63
2019-01-23T22:48:16.883Z,44.20
2019-01-23T22:50:44.300Z,42.23
2019-01-23T22:53:11.182Z,42.53
2019-01-23T22:55:37.798Z,44.70
2019-01-23T22:58:04.550Z,41.17
2019-01-23T23:00:44.166Z,45.57
2019-01-23T23:03:12.722Z,42.53
2019-01-23T23:05:39.551Z,47.30
2019-01-23T23:08:06.217Z,42.40
2019-01-23T23:10:34.337Z,42.60
2019-01-23T23:13:03.013Z,43.93
2019-01-23T23:15:29.639Z,38.60
2019-01-23T23:17:56.298Z,40.67
2019-01-23T23:20:22.829Z,45.23
2019-01-23T23:22:49.572Z,43.73
2019-01-23T23:25:16.197Z,44.43
2019-01-23T23:27:42.941Z,44.80
2019-01-23T23:30:13.372Z,45.87
2019-01-23T23:32:40.154Z,50.63
2019-01-23T23:35:06.899Z,39.73
2019-01-23T23:37:33.441Z,46.27
2019-01-23T23:40:00.252Z,45.30
2019-01-23T23:42:26.810Z,43.40
2019-01-23T23:44:53.333Z,43.30
2019-01-23T23:47:19.880Z,41.23
2019-01-23T23:49:46.404Z,41.63
2019-01-23T23:52:12.944Z,43.20
2019-01-23T23:54:39.497Z,43.17
2019-01-23T23:57:06.018Z,43.53
2019-01-23T23:59:32.568Z,45.13
